Terminal Aerodrome Forecast
Issued by NWS

Home | Current Version | Previous Version | Text Only | Print | Product List | Glossary On
Versions: 1 2 3 4 5 6 7 8 9 10 11 12 13 14 15
617
FTUS46 KMFR 241730
TAFOTH
TAF
KOTH 241730Z 2418/2518 35010G18KT P6SM FEW020
     FM242000 36022G30KT P6SM SKC
     FM250600 35012G20KT P6SM BKN010
     FM251000 35008KT 5SM BR OVC005
     FM251600 35011G16KT P6SM FEW010=

USA.gov is the U.S. government's official web portal to all federal, state and local government web resources and services.